Tattenhall, United Kingdom
Current Conditions -  °F | °C
As of 1:50 PM on Thursday 30 Oct 2014 (Local Time) from EGNR Reporting Station
Scattered Clouds Scattered Clouds  
Wind Chill: 18°   Ceiling: Unl
Heat Index: 18°   Visibility: 6mi
Dew Point: 15°   Wind: 12mph
Humidity: 83%   Direction: 180°S
Pressure: 29.97"   Gusts: NA
Location:  53.12°N, 2.77°W
Report Text: EGNR 301350Z 18010KT 9999 FEW015 SCT038 18/15 Q1015
Loading
Personal Weather Stations






























Interactive Weather Map
Tropical Storm Tracking
New forecast layout! Learn more

10-Day Weather Forecast

Advertisements
Track Severe Weather on mobile